Time;durP1;ratioP1;P1;durP2;ratioP2;P2;SDS_P1;SDS_P2;PMS_P1;PMS_P2;Temp;Humidity;BMP_temperature;BMP_pressure;BME280_temperature;BME280_humidity;BME280_pressure;Samples;Min_cycle;Max_cycle;Signal;HPM_P1;HPM_P2
2023/12/03 00:00:13;;;;;;;;;;;14.80;99.90;;;;;;5103498;28;19962;-71
2023/12/03 00:02:39;;;;;;;;;;;14.70;99.90;;;;;;5063070;28;20350;-71
2023/12/03 00:05:06;;;;;;;;;;;14.70;99.90;;;;;;5049130;28;19921;-71
2023/12/03 00:07:32;;;;;;;;;;;14.70;99.90;;;;;;5051093;28;20268;-73
2023/12/03 00:09:58;;;;;;;;;;;14.60;99.90;;;;;;5050501;28;19909;-69
2023/12/03 00:12:24;;;;;;;;;;;14.60;99.90;;;;;;5049103;28;19912;-69
2023/12/03 00:14:50;;;;;;;;;;;14.50;99.90;;;;;;5050838;28;20012;-69
2023/12/03 00:17:16;;;;;;;;;;;14.50;99.90;;;;;;5049717;28;20300;-69
2023/12/03 00:19:41;;;;;;;;;;;14.40;99.90;;;;;;5042017;28;19913;-69
2023/12/03 00:22:08;;;;;;;;;;;14.50;99.90;;;;;;5030807;28;19920;-69
2023/12/03 00:24:34;;;;;;;;;;;14.40;99.90;;;;;;5030310;28;19952;-69
2023/12/03 00:27:00;;;;;;;;;;;14.40;99.90;;;;;;5030604;28;19956;-69
2023/12/03 00:29:25;;;;;;;;;;;14.40;99.90;;;;;;5044829;28;19913;-70
2023/12/03 00:31:52;;;;;;;;;;;14.50;99.90;;;;;;5049338;28;20025;-68
2023/12/03 00:34:18;;;;;;;;;;;14.50;99.90;;;;;;5030614;28;19932;-71
2023/12/03 00:36:44;;;;;;;;;;;14.50;99.90;;;;;;5030413;28;20281;-69
2023/12/03 00:39:10;;;;;;;;;;;14.50;99.90;;;;;;5048964;28;20000;-69
2023/12/03 00:41:37;;;;;;;;;;;14.50;99.90;;;;;;5050300;28;19996;-69
2023/12/03 00:44:02;;;;;;;;;;;14.50;99.90;;;;;;5050349;28;19917;-69
2023/12/03 00:46:28;;;;;;;;;;;14.50;99.90;;;;;;5050319;28;19916;-69
2023/12/03 00:48:54;;;;;;;;;;;14.50;99.90;;;;;;5052077;28;19912;-69
2023/12/03 00:51:20;;;;;;;;;;;14.50;99.90;;;;;;5062519;28;19908;-69
2023/12/03 00:53:46;;;;;;;;;;;14.50;99.90;;;;;;5074257;28;19909;-71
2023/12/03 00:56:12;;;;;;;;;;;14.50;99.90;;;;;;5073905;28;19919;-69
2023/12/03 00:58:37;;;;;;;;;;;14.50;99.90;;;;;;5074051;28;19919;-69
2023/12/03 01:01:05;;;;;;;;;;;14.50;99.90;;;;;;5073980;28;20025;-69
2023/12/03 01:03:35;;;;;;;;;;;14.50;99.90;;;;;;5058719;28;20024;-70
2023/12/03 01:06:01;;;;;;;;;;;14.50;99.90;;;;;;5054020;28;19928;-70
2023/12/03 01:08:27;;;;;;;;;;;14.60;99.90;;;;;;5053734;28;19917;-68
2023/12/03 01:10:53;;;;;;;;;;;14.70;99.90;;;;;;5052105;28;19913;-71
2023/12/03 01:13:19;;;;;;;;;;;14.70;99.90;;;;;;5053819;28;19928;-69
2023/12/03 01:15:45;;;;;;;;;;;14.60;99.90;;;;;;5052426;28;19980;-64
2023/12/03 01:18:11;;;;;;;;;;;14.70;99.90;;;;;;5050195;28;19909;-65
2023/12/03 01:20:39;;;;;;;;;;;14.70;99.90;;;;;;5062081;28;20375;-69
2023/12/03 01:23:18;;;;;;;;;;;14.70;99.90;;;;;;5059589;28;19930;-66
2023/12/03 01:25:44;;;;;;;;;;;14.70;99.90;;;;;;5056094;28;20389;-67
2023/12/03 01:28:10;;;;;;;;;;;14.70;99.90;;;;;;5062409;28;19928;-70
2023/12/03 01:30:36;;;;;;;;;;;14.70;99.90;;;;;;5061139;28;20316;-69
2023/12/03 01:33:01;;;;;;;;;;;14.70;99.90;;;;;;5053190;28;20272;-69
2023/12/03 01:35:27;;;;;;;;;;;14.70;99.90;;;;;;5053455;28;20019;-69
2023/12/03 01:37:53;;;;;;;;;;;14.70;99.90;;;;;;5053216;28;19908;-70
2023/12/03 01:40:19;;;;;;;;;;;14.60;99.90;;;;;;5053199;28;20004;-69
2023/12/03 01:42:45;;;;;;;;;;;14.60;99.90;;;;;;5085668;28;19917;-69
2023/12/03 01:45:11;;;;;;;;;;;14.60;99.90;;;;;;5053127;28;19938;-69
2023/12/03 01:47:37;;;;;;;;;;;14.60;99.90;;;;;;5053343;28;20336;-70
2023/12/03 01:50:05;;;;;;;;;;;14.70;99.90;;;;;;5054342;28;19967;-68
2023/12/03 01:52:31;;;;;;;;;;;14.70;99.90;;;;;;5072767;28;19927;-69
2023/12/03 01:54:57;;;;;;;;;;;14.70;99.90;;;;;;5072656;28;19909;-69
2023/12/03 01:57:23;;;;;;;;;;;14.80;99.90;;;;;;5073131;28;19908;-68
2023/12/03 01:59:49;;;;;;;;;;;14.80;99.90;;;;;;5071759;28;20003;-67
2023/12/03 02:02:16;;;;;;;;;;;14.80;99.90;;;;;;5066318;28;20019;-69
2023/12/03 02:04:42;;;;;;;;;;;14.80;99.90;;;;;;5057815;28;20380;-70
2023/12/03 02:07:09;;;;;;;;;;;14.90;99.90;;;;;;5055361;28;19921;-70
2023/12/03 02:09:37;;;;;;;;;;;14.90;99.90;;;;;;5061776;28;19908;-69
2023/12/03 02:12:03;;;;;;;;;;;14.90;99.90;;;;;;5059155;28;19919;-70
2023/12/03 02:14:29;;;;;;;;;;;14.90;99.90;;;;;;5061870;28;20359;-70
2023/12/03 02:16:55;;;;;;;;;;;14.90;99.90;;;;;;5061588;28;19955;-68
2023/12/03 02:19:21;;;;;;;;;;;14.90;99.90;;;;;;5070565;28;19908;-68
2023/12/03 02:21:47;;;;;;;;;;;14.90;99.90;;;;;;5071619;28;20361;-71
2023/12/03 02:24:13;;;;;;;;;;;14.90;99.90;;;;;;5072327;28;19908;-68
2023/12/03 02:26:39;;;;;;;;;;;15.00;99.90;;;;;;5036739;28;19932;-69
2023/12/03 02:29:04;;;;;;;;;;;14.90;99.90;;;;;;5036105;28;19944;-68
2023/12/03 02:31:30;;;;;;;;;;;14.90;99.90;;;;;;5030957;28;19989;-69
2023/12/03 02:34:08;;;;;;;;;;;14.90;99.90;;;;;;5032229;28;19978;-69
2023/12/03 02:36:34;;;;;;;;;;;14.90;99.90;;;;;;5036368;28;19963;-69
2023/12/03 02:39:00;;;;;;;;;;;14.90;99.90;;;;;;5052320;28;19980;-69
2023/12/03 02:41:26;;;;;;;;;;;14.90;99.90;;;;;;5051881;28;20026;-69
2023/12/03 02:43:51;;;;;;;;;;;14.90;99.90;;;;;;5052102;28;19948;-69
2023/12/03 02:46:17;;;;;;;;;;;14.80;99.90;;;;;;5051812;28;19999;-69
2023/12/03 02:48:43;;;;;;;;;;;14.80;99.90;;;;;;5052184;28;20283;-69
2023/12/03 02:51:09;;;;;;;;;;;14.80;99.90;;;;;;5053058;28;19912;-69
2023/12/03 02:53:36;;;;;;;;;;;14.70;99.90;;;;;;5071596;28;20028;-69
2023/12/03 02:56:02;;;;;;;;;;;14.80;99.90;;;;;;5071570;28;19952;-70
2023/12/03 02:58:28;;;;;;;;;;;14.70;99.90;;;;;;5071916;28;19909;-68
2023/12/03 03:00:54;;;;;;;;;;;14.80;99.90;;;;;;5071454;28;19959;-70
2023/12/03 03:03:20;;;;;;;;;;;14.70;99.90;;;;;;5071506;28;19981;-70
2023/12/03 03:05:46;;;;;;;;;;;14.60;99.90;;;;;;5071475;28;20007;-69
2023/12/03 03:08:12;;;;;;;;;;;14.70;99.90;;;;;;5103855;28;20387;-69
2023/12/03 03:10:38;;;;;;;;;;;14.70;99.90;;;;;;5103885;28;19909;-70
2023/12/03 03:13:04;;;;;;;;;;;14.70;99.90;;;;;;5071639;28;19909;-69
2023/12/03 03:15:30;;;;;;;;;;;14.70;99.90;;;;;;5071439;28;19916;-68
2023/12/03 03:17:56;;;;;;;;;;;14.60;99.90;;;;;;5071298;28;20003;-69
2023/12/03 03:20:22;;;;;;;;;;;14.60;99.90;;;;;;5067259;28;20266;-68
2023/12/03 03:22:48;;;;;;;;;;;14.70;99.90;;;;;;5051318;28;19913;-70
2023/12/03 03:25:15;;;;;;;;;;;14.60;99.90;;;;;;5047913;28;19912;-70
2023/12/03 03:27:41;;;;;;;;;;;14.70;99.90;;;;;;5037195;28;20030;-69
2023/12/03 03:30:07;;;;;;;;;;;14.60;99.90;;;;;;5044286;28;19959;-69
2023/12/03 03:32:33;;;;;;;;;;;14.60;99.90;;;;;;5044170;28;19913;-69
2023/12/03 03:34:59;;;;;;;;;;;14.60;99.90;;;;;;5031403;28;20000;-68
2023/12/03 03:37:25;;;;;;;;;;;14.50;99.90;;;;;;5042155;28;19909;-69
2023/12/03 03:39:51;;;;;;;;;;;14.50;99.90;;;;;;5050910;28;19920;-67
2023/12/03 03:42:17;;;;;;;;;;;14.50;99.90;;;;;;5050987;28;19909;-68
2023/12/03 03:44:43;;;;;;;;;;;14.60;99.90;;;;;;5050755;28;19919;-68
2023/12/03 03:47:11;;;;;;;;;;;14.60;99.90;;;;;;5050848;28;20020;-68
2023/12/03 03:49:37;;;;;;;;;;;14.60;99.90;;;;;;5050906;28;20262;-69
2023/12/03 03:52:03;;;;;;;;;;;14.70;99.90;;;;;;5053031;28;19978;-69
2023/12/03 03:54:29;;;;;;;;;;;14.70;99.90;;;;;;5051260;28;19916;-68
2023/12/03 03:56:55;;;;;;;;;;;14.70;99.90;;;;;;5050667;28;20341;-70
2023/12/03 03:59:21;;;;;;;;;;;14.70;99.90;;;;;;5050884;28;20285;-68
2023/12/03 04:01:47;;;;;;;;;;;14.70;99.90;;;;;;5050263;28;19958;-69
2023/12/03 04:04:13;;;;;;;;;;;14.70;99.90;;;;;;5030775;28;20281;-68
2023/12/03 04:06:39;;;;;;;;;;;14.70;99.90;;;;;;5030984;28;19917;-69
2023/12/03 04:09:06;;;;;;;;;;;14.70;99.90;;;;;;5030954;28;19914;-68
2023/12/03 04:11:37;;;;;;;;;;;14.70;99.90;;;;;;5030495;28;20039;-69
2023/12/03 04:14:03;;;;;;;;;;;14.70;99.90;;;;;;5031082;28;20337;-69
2023/12/03 04:16:29;;;;;;;;;;;14.80;99.90;;;;;;5030521;28;19943;-69
2023/12/03 04:18:55;;;;;;;;;;;14.80;99.90;;;;;;5030231;28;19909;-69
2023/12/03 04:21:20;;;;;;;;;;;14.70;99.90;;;;;;5053967;28;20240;-69
2023/12/03 04:23:46;;;;;;;;;;;14.70;99.90;;;;;;5071967;28;19912;-68
2023/12/03 04:26:12;;;;;;;;;;;14.60;99.90;;;;;;5074309;28;19908;-68
2023/12/03 04:28:41;;;;;;;;;;;14.50;99.90;;;;;;5074439;28;20356;-69
2023/12/03 04:31:22;;;;;;;;;;;14.40;99.90;;;;;;5074369;28;19930;-69
2023/12/03 04:33:49;;;;;;;;;;;14.30;99.90;;;;;;5057001;28;19916;-69
2023/12/03 04:36:15;;;;;;;;;;;14.20;99.90;;;;;;5054212;28;19927;-70
2023/12/03 04:38:42;;;;;;;;;;;14.30;99.90;;;;;;5054556;28;19909;-69
2023/12/03 04:41:08;;;;;;;;;;;14.20;99.90;;;;;;5054010;28;19909;-68
2023/12/03 04:43:34;;;;;;;;;;;14.30;99.90;;;;;;5053793;28;19916;-67
2023/12/03 04:46:05;;;;;;;;;;;14.30;99.90;;;;;;5043503;28;19913;-68
2023/12/03 04:48:34;;;;;;;;;;;14.20;99.90;;;;;;5043298;28;20020;-67
2023/12/03 04:51:00;;;;;;;;;;;14.20;99.90;;;;;;5068996;28;19916;-68
2023/12/03 04:53:26;;;;;;;;;;;14.20;99.90;;;;;;5055162;28;19920;-68
2023/12/03 04:55:52;;;;;;;;;;;14.30;99.90;;;;;;5053818;28;19908;-65
2023/12/03 04:58:18;;;;;;;;;;;14.40;99.90;;;;;;5053928;28;19952;-69
2023/12/03 05:00:44;;;;;;;;;;;14.40;99.90;;;;;;5053865;28;19909;-69
2023/12/03 05:03:09;;;;;;;;;;;14.50;99.90;;;;;;5041806;28;19913;-71
2023/12/03 05:05:36;;;;;;;;;;;14.50;99.90;;;;;;5033573;28;19924;-69
2023/12/03 05:08:02;;;;;;;;;;;14.60;99.90;;;;;;5033846;28;19924;-68
2023/12/03 05:10:29;;;;;;;;;;;14.60;99.90;;;;;;5033535;28;19917;-69
2023/12/03 05:12:55;;;;;;;;;;;14.70;99.90;;;;;;5033713;28;20002;-69
2023/12/03 05:15:21;;;;;;;;;;;14.70;99.90;;;;;;5032171;28;19998;-69
2023/12/03 05:17:47;;;;;;;;;;;14.70;99.90;;;;;;5034109;28;19972;-69
2023/12/03 05:20:13;;;;;;;;;;;14.80;99.90;;;;;;5039366;28;19971;-68
2023/12/03 05:22:39;;;;;;;;;;;14.80;99.90;;;;;;5073397;28;20037;-68
2023/12/03 05:25:05;;;;;;;;;;;14.80;99.90;;;;;;5073390;28;20333;-69
2023/12/03 05:27:31;;;;;;;;;;;14.70;99.90;;;;;;5105608;28;19913;-68
2023/12/03 05:29:57;;;;;;;;;;;14.60;99.90;;;;;;5073375;28;19914;-68
2023/12/03 05:32:22;;;;;;;;;;;14.60;99.90;;;;;;5068018;28;20415;-68
2023/12/03 05:34:48;;;;;;;;;;;14.60;99.90;;;;;;5053239;28;19913;-69
2023/12/03 05:37:14;;;;;;;;;;;14.40;99.90;;;;;;5053404;28;20308;-68
2023/12/03 05:39:40;;;;;;;;;;;14.30;99.90;;;;;;5053095;28;20363;-68
2023/12/03 05:42:06;;;;;;;;;;;14.20;99.90;;;;;;5053063;28;19952;-69
2023/12/03 05:44:33;;;;;;;;;;;14.20;99.90;;;;;;5053531;28;20357;-70
2023/12/03 05:46:59;;;;;;;;;;;14.20;99.90;;;;;;5052862;28;19963;-69
2023/12/03 05:49:25;;;;;;;;;;;14.20;99.90;;;;;;5053182;28;19994;-69
2023/12/03 05:51:50;;;;;;;;;;;14.10;99.90;;;;;;5052795;28;19912;-68
2023/12/03 05:54:16;;;;;;;;;;;14.10;99.90;;;;;;5053180;28;19909;-69
2023/12/03 05:56:43;;;;;;;;;;;14.10;99.90;;;;;;5051190;28;19963;-68
2023/12/03 05:59:09;;;;;;;;;;;14.20;99.90;;;;;;5053067;28;19913;-72
2023/12/03 06:01:35;;;;;;;;;;;14.20;99.90;;;;;;5052644;28;19954;-69
2023/12/03 06:04:06;;;;;;;;;;;14.20;99.90;;;;;;5033516;28;20337;-69
2023/12/03 06:06:35;;;;;;;;;;;14.20;99.90;;;;;;5064998;28;19941;-68
2023/12/03 06:09:02;;;;;;;;;;;14.20;99.90;;;;;;5032865;28;19913;-69
2023/12/03 06:11:27;;;;;;;;;;;14.30;99.90;;;;;;5032639;28;19909;-69
2023/12/03 06:13:55;;;;;;;;;;;14.30;99.90;;;;;;5032952;28;20242;-69
2023/12/03 06:16:21;;;;;;;;;;;14.40;99.90;;;;;;5032437;28;20365;-69
2023/12/03 06:18:47;;;;;;;;;;;14.40;99.90;;;;;;5032645;28;19909;-69
2023/12/03 06:21:13;;;;;;;;;;;14.40;99.90;;;;;;5054994;28;20237;-68
2023/12/03 06:23:39;;;;;;;;;;;14.50;99.90;;;;;;5072359;28;20353;-69
2023/12/03 06:26:05;;;;;;;;;;;14.50;99.90;;;;;;5072199;28;19938;-68
2023/12/03 06:28:30;;;;;;;;;;;14.50;99.90;;;;;;5072351;28;20248;-68
2023/12/03 06:30:57;;;;;;;;;;;14.50;99.90;;;;;;5104545;28;19935;-69
2023/12/03 06:33:23;;;;;;;;;;;14.60;99.90;;;;;;5058266;28;20355;-69
2023/12/03 06:35:49;;;;;;;;;;;14.60;99.90;;;;;;5052209;28;19916;-67
2023/12/03 06:38:15;;;;;;;;;;;14.60;99.90;;;;;;5052067;28;20236;-68
2023/12/03 06:40:41;;;;;;;;;;;14.60;99.90;;;;;;5052011;28;19962;-69
2023/12/03 06:43:08;;;;;;;;;;;14.70;99.90;;;;;;5051932;28;19909;-66
2023/12/03 06:45:33;;;;;;;;;;;14.70;99.90;;;;;;5051552;28;20308;-69
2023/12/03 06:47:59;;;;;;;;;;;14.70;99.90;;;;;;5051630;28;19917;-70
2023/12/03 06:50:25;;;;;;;;;;;14.70;99.90;;;;;;5088769;28;19995;-70
2023/12/03 06:52:51;;;;;;;;;;;14.80;99.90;;;;;;5071761;28;19915;-70
2023/12/03 06:55:17;;;;;;;;;;;14.80;99.90;;;;;;5071447;28;19908;-70
2023/12/03 06:57:43;;;;;;;;;;;14.70;99.90;;;;;;5071516;28;19915;-70
2023/12/03 07:00:09;;;;;;;;;;;14.80;99.90;;;;;;5071623;28;19920;-74
2023/12/03 07:02:36;;;;;;;;;;;14.70;99.90;;;;;;5064455;28;19999;-72
2023/12/03 07:05:04;;;;;;;;;;;14.70;99.90;;;;;;5051243;28;19968;-70
2023/12/03 07:07:30;;;;;;;;;;;14.70;99.90;;;;;;5051325;28;19978;-71
2023/12/03 07:09:56;;;;;;;;;;;14.70;99.90;;;;;;5049910;28;20007;-70
2023/12/03 07:12:22;;;;;;;;;;;14.80;99.90;;;;;;5051486;28;20008;-71
2023/12/03 07:14:49;;;;;;;;;;;14.90;99.90;;;;;;5051329;28;20276;-71
2023/12/03 07:17:15;;;;;;;;;;;14.90;99.90;;;;;;5051513;28;19932;-69
2023/12/03 07:19:44;;;;;;;;;;;15.00;99.90;;;;;;5042667;28;20380;-69
2023/12/03 07:22:10;;;;;;;;;;;15.00;99.90;;;;;;5055850;28;19936;-70
2023/12/03 07:24:37;;;;;;;;;;;15.10;99.90;;;;;;5051892;28;20368;-71
2023/12/03 07:27:03;;;;;;;;;;;15.20;99.90;;;;;;5051604;28;19988;-70
2023/12/03 07:29:28;;;;;;;;;;;15.30;99.90;;;;;;5050331;28;20071;-69
2023/12/03 07:31:54;;;;;;;;;;;15.40;99.90;;;;;;5050206;28;19947;-69
2023/12/03 07:34:20;;;;;;;;;;;15.40;99.90;;;;;;5030430;28;19969;-69
2023/12/03 07:36:46;;;;;;;;;;;15.50;99.90;;;;;;5032142;28;19910;-70
2023/12/03 07:39:12;;;;;;;;;;;15.40;99.90;;;;;;5031720;28;19913;-69
2023/12/03 07:41:37;;;;;;;;;;;15.50;99.90;;;;;;5031740;28;20000;-69
2023/12/03 07:44:03;;;;;;;;;;;15.50;99.90;;;;;;5031838;28;20041;-70
2023/12/03 07:46:29;;;;;;;;;;;15.50;99.90;;;;;;5030264;28;19958;-70
2023/12/03 07:48:55;;;;;;;;;;;15.50;99.90;;;;;;5031752;28;19917;-69
2023/12/03 07:51:21;;;;;;;;;;;15.50;99.90;;;;;;5036274;28;19913;-69
2023/12/03 07:53:46;;;;;;;;;;;15.50;99.90;;;;;;5038504;28;19963;-70
2023/12/03 07:56:13;;;;;;;;;;;15.40;99.90;;;;;;5031642;28;20024;-67
2023/12/03 07:58:38;;;;;;;;;;;15.40;99.90;;;;;;5033008;28;19909;-69
2023/12/03 08:01:05;;;;;;;;;;;15.30;99.90;;;;;;5035840;28;19916;-72
2023/12/03 08:03:31;;;;;;;;;;;15.20;99.90;;;;;;5035571;28;19913;-70
2023/12/03 08:05:57;;;;;;;;;;;15.10;99.90;;;;;;5034252;28;20004;-71
2023/12/03 08:08:23;;;;;;;;;;;15.10;99.90;;;;;;5035637;28;20273;-71
2023/12/03 08:10:49;;;;;;;;;;;15.10;99.90;;;;;;5035462;28;19921;-70
2023/12/03 08:13:15;;;;;;;;;;;15.20;99.90;;;;;;5035638;28;20392;-71
2023/12/03 08:15:41;;;;;;;;;;;15.10;99.90;;;;;;5035443;28;19928;-71
2023/12/03 08:18:07;;;;;;;;;;;15.10;99.90;;;;;;5033937;28;19947;-69
2023/12/03 08:20:32;;;;;;;;;;;15.10;99.90;;;;;;5046688;28;19908;-67
2023/12/03 08:22:58;;;;;;;;;;;15.20;99.90;;;;;;5075644;28;19979;-72
2023/12/03 08:25:24;;;;;;;;;;;15.30;99.90;;;;;;5073648;28;20028;-71
2023/12/03 08:27:51;;;;;;;;;;;15.30;99.90;;;;;;5075033;28;19920;-71
2023/12/03 08:30:17;;;;;;;;;;;15.40;99.90;;;;;;5075057;28;19963;-72
2023/12/03 08:32:43;;;;;;;;;;;15.40;99.90;;;;;;5075704;28;20237;-70
2023/12/03 08:35:09;;;;;;;;;;;15.40;99.90;;;;;;5074948;28;20357;-74
2023/12/03 08:37:35;;;;;;;;;;;15.40;99.90;;;;;;5075025;28;19915;-74
2023/12/03 08:40:01;;;;;;;;;;;15.50;99.90;;;;;;5074673;28;19916;-75
2023/12/03 08:42:28;;;;;;;;;;;15.60;99.90;;;;;;5107303;28;19915;-74
2023/12/03 08:44:54;;;;;;;;;;;15.70;99.90;;;;;;5074909;28;19908;-75
2023/12/03 08:47:20;;;;;;;;;;;15.60;99.90;;;;;;5075176;28;20037;-76
2023/12/03 08:49:45;;;;;;;;;;;15.50;99.90;;;;;;5074930;28;20355;-74
2023/12/03 08:52:12;;;;;;;;;;;15.50;99.90;;;;;;5055554;28;19908;-76
2023/12/03 08:54:38;;;;;;;;;;;15.50;99.90;;;;;;5086658;28;19999;-75
2023/12/03 08:57:04;;;;;;;;;;;15.60;99.90;;;;;;5054601;28;19974;-75
2023/12/03 08:59:30;;;;;;;;;;;15.70;99.90;;;;;;5054957;28;19916;-76
2023/12/03 09:02:02;;;;;;;;;;;15.80;99.90;;;;;;5053038;28;19909;-75
2023/12/03 09:04:31;;;;;;;;;;;16.00;99.90;;;;;;5054528;28;20024;-75
2023/12/03 09:06:56;;;;;;;;;;;16.20;99.90;;;;;;5054922;28;20357;-77
2023/12/03 09:09:23;;;;;;;;;;;16.40;99.90;;;;;;5054108;28;19927;-76
2023/12/03 09:11:52;;;;;;;;;;;16.60;99.90;;;;;;5054223;28;20003;-72
2023/12/03 09:14:18;;;;;;;;;;;16.80;99.90;;;;;;5054671;28;19909;-76
2023/12/03 09:16:44;;;;;;;;;;;17.00;99.90;;;;;;5054708;28;19955;-75
2023/12/03 09:19:11;;;;;;;;;;;17.00;99.90;;;;;;5055483;28;19917;-75
2023/12/03 09:21:37;;;;;;;;;;;17.00;99.90;;;;;;5055094;28;19926;-76
2023/12/03 09:24:06;;;;;;;;;;;17.20;99.90;;;;;;5055023;28;20003;-76
2023/12/03 09:26:32;;;;;;;;;;;17.50;99.90;;;;;;5054769;28;20022;-74
2023/12/03 09:28:58;;;;;;;;;;;17.80;99.90;;;;;;5087277;28;19930;-75
2023/12/03 09:31:23;;;;;;;;;;;17.80;99.90;;;;;;5055175;28;19937;-79
2023/12/03 09:33:52;;;;;;;;;;;17.90;99.90;;;;;;5038698;28;20011;-77
2023/12/03 09:36:18;;;;;;;;;;;18.00;99.90;;;;;;5043180;28;20007;-78
2023/12/03 09:38:44;;;;;;;;;;;18.10;99.90;;;;;;5036224;28;20380;-78
2023/12/03 09:41:11;;;;;;;;;;;18.20;99.90;;;;;;5035289;28;19913;-78
2023/12/03 09:43:47;;;;;;;;;;;18.30;99.90;;;;;;5035587;28;19916;-80
2023/12/03 09:46:13;;;;;;;;;;;18.40;99.90;;;;;;5034915;28;19916;-78
2023/12/03 09:48:41;;;;;;;;;;;18.60;99.90;;;;;;5034814;28;19940;-77
2023/12/03 09:51:08;;;;;;;;;;;18.80;99.90;;;;;;5086803;28;19927;-78
2023/12/03 09:53:36;;;;;;;;;;;18.90;99.90;;;;;;5074645;28;19908;-78
2023/12/03 09:56:05;;;;;;;;;;;19.00;99.90;;;;;;5091966;28;19908;-79
2023/12/03 09:58:31;;;;;;;;;;;19.10;99.90;;;;;;5092570;28;19912;-78
2023/12/03 10:00:57;;;;;;;;;;;19.10;99.90;;;;;;5092485;28;20178;-79
2023/12/03 10:03:24;;;;;;;;;;;19.00;99.90;;;;;;5077624;28;19935;-76
2023/12/03 10:05:51;;;;;;;;;;;18.70;99.90;;;;;;5071426;28;19931;-76
2023/12/03 10:08:18;;;;;;;;;;;18.50;99.90;;;;;;5072161;28;19916;-80
2023/12/03 10:10:46;;;;;;;;;;;18.30;99.90;;;;;;5071618;28;20483;-79
2023/12/03 10:13:13;;;;;;;;;;;18.20;99.90;;;;;;5071739;28;19908;-80
2023/12/03 10:15:39;;;;;;;;;;;18.00;99.90;;;;;;5054844;28;19908;-81
2023/12/03 10:18:08;;;;;;;;;;;18.00;99.90;;;;;;5071745;28;19972;-79
2023/12/03 10:20:34;;;;;;;;;;;18.00;99.90;;;;;;5076785;28;19962;-79
2023/12/03 10:23:04;;;;;;;;;;;18.00;99.90;;;;;;5074637;28;19923;-77
2023/12/03 10:25:38;;;;;;;;;;;17.90;99.90;;;;;;5048365;28;20095;-78
2023/12/03 10:28:11;;;;;;;;;;;18.00;99.90;;;;;;5038670;28;19925;-78
2023/12/03 10:30:41;;;;;;;;;;;18.10;99.90;;;;;;5033731;28;19956;-80
2023/12/03 10:33:11;;;;;;;;;;;18.20;99.90;;;;;;5037189;28;19912;-78
2023/12/03 10:35:37;;;;;;;;;;;18.20;99.90;;;;;;5047732;28;20039;-78
2023/12/03 10:38:09;;;;;;;;;;;18.20;99.90;;;;;;5039284;28;20324;-77
2023/12/03 10:40:35;;;;;;;;;;;18.40;99.90;;;;;;5033397;28;19909;-77
2023/12/03 10:43:01;;;;;;;;;;;18.60;99.90;;;;;;5049374;28;19963;-76
2023/12/03 10:45:27;;;;;;;;;;;18.50;99.90;;;;;;5053632;28;19915;-79
2023/12/03 10:47:54;;;;;;;;;;;18.50;99.90;;;;;;5052984;28;20395;-80
2023/12/03 10:50:21;;;;;;;;;;;18.50;99.90;;;;;;5056628;28;19919;-80
2023/12/03 10:52:47;;;;;;;;;;;18.50;99.90;;;;;;5073559;28;19910;-80
2023/12/03 10:55:14;;;;;;;;;;;18.50;99.90;;;;;;5073344;28;19943;-80
2023/12/03 10:57:48;;;;;;;;;;;18.40;99.90;;;;;;5088715;28;20048;-77
2023/12/03 11:00:18;;;;;;;;;;;18.50;99.90;;;;;;5071310;28;19908;-78
2023/12/03 11:03:07;;;;;;;;;;;18.60;99.90;;;;;;5063168;28;19963;-78
2023/12/03 11:05:36;;;;;;;;;;;18.60;99.90;;;;;;5052592;28;20384;-76
2023/12/03 11:08:05;;;;;;;;;;;18.70;99.90;;;;;;5053048;28;19917;-77
2023/12/03 11:10:39;;;;;;;;;;;18.70;99.90;;;;;;5052207;28;20641;-77
2023/12/03 11:13:05;;;;;;;;;;;18.80;99.90;;;;;;5052979;28;20391;-79
2023/12/03 11:15:32;;;;;;;;;;;18.90;99.90;;;;;;5053150;28;20019;-78
2023/12/03 11:17:59;;;;;;;;;;;18.90;99.90;;;;;;5052632;28;20313;-76
2023/12/03 11:20:30;;;;;;;;;;;18.90;99.90;;;;;;5056767;28;20280;-76
2023/12/03 11:23:15;;;;;;;;;;;18.90;99.90;;;;;;5104940;28;19973;-77
2023/12/03 11:25:55;;;;;;;;;;;19.10;99.90;;;;;;5072070;28;20395;-76
2023/12/03 11:28:22;;;;;;;;;;;19.00;99.90;;;;;;5072398;28;19928;-76
2023/12/03 11:30:51;;;;;;;;;;;19.00;99.90;;;;;;5072122;28;19916;-77
2023/12/03 11:33:21;;;;;;;;;;;18.90;99.90;;;;;;5059575;28;19909;-78
2023/12/03 11:35:48;;;;;;;;;;;18.70;99.90;;;;;;5052238;28;19920;-76
2023/12/03 11:38:19;;;;;;;;;;;18.60;99.90;;;;;;5051908;28;20403;-78
2023/12/03 11:40:45;;;;;;;;;;;18.50;99.90;;;;;;5051761;28;19958;-78
2023/12/03 11:43:24;;;;;;;;;;;18.50;99.90;;;;;;5052691;28;19986;-74
2023/12/03 11:46:14;;;;;;;;;;;18.30;99.90;;;;;;5051632;28;19909;-76
2023/12/03 11:48:41;;;;;;;;;;;18.40;99.90;;;;;;5051140;28;19927;-76
2023/12/03 11:51:09;;;;;;;;;;;18.60;99.90;;;;;;5060872;28;19916;-75
2023/12/03 11:53:37;;;;;;;;;;;18.70;99.90;;;;;;5072074;28;19971;-77
2023/12/03 11:56:04;;;;;;;;;;;18.60;99.90;;;;;;5071867;28;19912;-76
2023/12/03 11:58:39;;;;;;;;;;;18.60;99.90;;;;;;5070211;28;20008;-77
2023/12/03 12:01:05;;;;;;;;;;;18.60;99.90;;;;;;5072108;28;19955;-77
2023/12/03 12:03:31;;;;;;;;;;;18.70;99.90;;;;;;5071733;28;20309;-74
2023/12/03 12:05:58;;;;;;;;;;;18.40;99.90;;;;;;5070541;28;19917;-77
2023/12/03 12:08:23;;;;;;;;;;;18.30;99.90;;;;;;5070415;28;19917;-77
2023/12/03 12:10:51;;;;;;;;;;;18.30;99.90;;;;;;5103888;28;19931;-76
2023/12/03 12:13:18;;;;;;;;;;;18.50;99.90;;;;;;5087581;28;19912;-77
2023/12/03 12:15:44;;;;;;;;;;;18.50;99.90;;;;;;5072067;28;20237;-76
2023/12/03 12:18:25;;;;;;;;;;;18.60;99.90;;;;;;5071647;28;19919;-77
2023/12/03 12:20:51;;;;;;;;;;;18.70;99.90;;;;;;5063778;28;20335;-75
2023/12/03 12:23:19;;;;;;;;;;;18.60;99.90;;;;;;5052035;28;19908;-76
2023/12/03 12:25:45;;;;;;;;;;;18.60;99.90;;;;;;5051606;28;19935;-76
2023/12/03 12:28:11;;;;;;;;;;;18.60;99.90;;;;;;5062851;28;19921;-75
2023/12/03 12:30:39;;;;;;;;;;;18.50;99.90;;;;;;5053270;28;19909;-74
2023/12/03 12:33:10;;;;;;;;;;;18.40;99.90;;;;;;5051927;28;19909;-77
2023/12/03 12:35:36;;;;;;;;;;;18.60;99.90;;;;;;5051680;28;19909;-77
2023/12/03 12:38:03;;;;;;;;;;;18.70;99.90;;;;;;5051605;28;19959;-79
2023/12/03 12:40:30;;;;;;;;;;;18.70;99.90;;;;;;5050092;28;19957;-79
2023/12/03 12:43:04;;;;;;;;;;;18.80;99.90;;;;;;5050162;28;20257;-79
2023/12/03 12:45:30;;;;;;;;;;;18.90;99.90;;;;;;5054159;28;20012;-78
2023/12/03 12:47:57;;;;;;;;;;;19.00;99.90;;;;;;5055888;28;19917;-78
2023/12/03 12:50:32;;;;;;;;;;;19.00;99.90;;;;;;5055358;28;19908;-78
2023/12/03 12:52:58;;;;;;;;;;;19.00;99.90;;;;;;5055731;28;19959;-78
2023/12/03 12:55:30;;;;;;;;;;;19.00;99.90;;;;;;5055340;28;20300;-77
2023/12/03 12:57:57;;;;;;;;;;;19.00;99.90;;;;;;5055171;28;19909;-77
2023/12/03 13:00:22;;;;;;;;;;;18.90;99.90;;;;;;5054956;28;20011;-77
2023/12/03 13:02:48;;;;;;;;;;;18.90;99.90;;;;;;5054398;28;20277;-78
2023/12/03 13:05:14;;;;;;;;;;;18.90;99.90;;;;;;5052863;28;19921;-77
2023/12/03 13:07:42;;;;;;;;;;;18.80;99.90;;;;;;5054472;28;19924;-77
2023/12/03 13:10:07;;;;;;;;;;;18.20;99.90;;;;;;5052872;28;19978;-79
2023/12/03 13:12:33;;;;;;;;;;;18.10;99.90;;;;;;5054053;28;19909;-79
2023/12/03 13:15:00;;;;;;;;;;;18.10;99.90;;;;;;5053611;28;19909;-78
2023/12/03 13:17:29;;;;;;;;;;;17.90;99.90;;;;;;5054126;28;19939;-79
2023/12/03 13:19:55;;;;;;;;;;;17.90;99.90;;;;;;5054463;28;19985;-78
2023/12/03 13:22:21;;;;;;;;;;;18.00;99.90;;;;;;5074115;28;19995;-78
2023/12/03 13:24:48;;;;;;;;;;;18.10;99.90;;;;;;5073929;28;20352;-79
2023/12/03 13:27:14;;;;;;;;;;;18.00;99.90;;;;;;5074146;28;20324;-78
2023/12/03 13:29:41;;;;;;;;;;;18.10;99.90;;;;;;5074312;28;19916;-79
2023/12/03 13:32:07;;;;;;;;;;;18.10;99.90;;;;;;5070838;28;20008;-76
2023/12/03 13:34:33;;;;;;;;;;;18.10;99.90;;;;;;5053853;28;20007;-76
2023/12/03 13:36:59;;;;;;;;;;;18.20;99.90;;;;;;5054362;28;20313;-78
2023/12/03 13:39:24;;;;;;;;;;;18.20;99.90;;;;;;5053894;28;19916;-77
2023/12/03 13:41:50;;;;;;;;;;;18.30;99.90;;;;;;5053530;28;20386;-76
2023/12/03 13:44:17;;;;;;;;;;;18.40;99.90;;;;;;5053937;28;19916;-77
2023/12/03 13:46:43;;;;;;;;;;;18.40;99.90;;;;;;5053720;28;19916;-77
2023/12/03 13:49:08;;;;;;;;;;;18.30;99.90;;;;;;5056405;28;20281;-77
2023/12/03 13:51:37;;;;;;;;;;;18.30;99.90;;;;;;5071566;28;20307;-76
2023/12/03 13:54:03;;;;;;;;;;;18.30;99.90;;;;;;5071843;28;19931;-77
2023/12/03 13:56:30;;;;;;;;;;;18.30;99.90;;;;;;5104172;28;20360;-76
2023/12/03 13:58:59;;;;;;;;;;;18.40;99.90;;;;;;5071530;28;19909;-76
2023/12/03 14:01:27;;;;;;;;;;;18.40;99.90;;;;;;5111662;28;19908;-75
2023/12/03 14:03:53;;;;;;;;;;;18.20;99.90;;;;;;5092890;28;19974;-77
2023/12/03 14:06:20;;;;;;;;;;;17.90;99.90;;;;;;5073944;28;19928;-76
2023/12/03 14:08:46;;;;;;;;;;;17.70;99.90;;;;;;5091078;28;19923;-76
2023/12/03 14:11:12;;;;;;;;;;;17.80;99.90;;;;;;5090566;28;19908;-76
2023/12/03 14:13:37;;;;;;;;;;;17.90;99.90;;;;;;5091193;28;20022;-75